Time;durP1;ratioP1;P1;durP2;ratioP2;P2;SDS_P1;SDS_P2;PMS_P1;PMS_P2;Temp;Humidity;BMP_temperature;BMP_pressure;BME280_temperature;BME280_humidity;BME280_pressure;Samples;Min_cycle;Max_cycle;Signal;HPM_P1;HPM_P2
2023/08/21 04:47:22;;;;;;;26.27;16.60;;;;;;;;;;5129873;23;21145;-72
2023/08/21 04:49:51;;;;;;;22.17;15.03;;;;;;;;;;4951954;29;20435;-72
2023/08/21 04:52:17;;;;;;;23.73;14.70;;;;;;;;;;4953610;29;20397;-72
2023/08/21 04:54:43;;;;;;;25.77;15.40;;;;;;;;;;4953393;29;20903;-71
2023/08/21 04:57:09;;;;;;;18.60;14.33;;;;;;;;;;4953590;28;20436;-71
2023/08/21 04:59:36;;;;;;;23.27;14.20;;;;;;;;;;4953652;28;20467;-72
2023/08/21 05:02:02;;;;;;;30.23;16.40;;;;;;;;;;4953404;28;20524;-72
2023/08/21 05:04:28;;;;;;;26.40;13.70;;;;;;;;;;4953406;28;20412;-73
2023/08/21 05:06:54;;;;;;;23.10;14.33;;;;;;;;;;4956431;28;20930;-73
2023/08/21 05:09:20;;;;;;;23.27;14.53;;;;;;;;;;4971545;28;20451;-73
2023/08/21 05:11:46;;;;;;;29.83;15.80;;;;;;;;;;4956967;28;20408;-72
2023/08/21 05:14:12;;;;;;;30.23;16.63;;;;;;;;;;4956879;28;20471;-72
2023/08/21 05:16:38;;;;;;;27.50;16.67;;;;;;;;;;4956724;28;20428;-72
2023/08/21 05:19:04;;;;;;;26.90;15.77;;;;;;;;;;4957072;28;20449;-72
2023/08/21 05:21:30;;;;;;;25.73;17.23;;;;;;;;;;4956775;28;20567;-73
2023/08/21 05:23:56;;;;;;;26.60;16.23;;;;;;;;;;4956825;28;20436;-73
2023/08/21 05:26:22;;;;;;;34.30;17.33;;;;;;;;;;4956899;28;20437;-73
2023/08/21 05:28:48;;;;;;;35.57;16.70;;;;;;;;;;4956900;28;20413;-72
2023/08/21 05:31:14;;;;;;;27.77;14.93;;;;;;;;;;4956548;28;20456;-73
2023/08/21 05:33:40;;;;;;;25.37;14.80;;;;;;;;;;4956438;28;20424;-73
2023/08/21 05:36:06;;;;;;;32.77;14.07;;;;;;;;;;4970935;28;20533;-73
2023/08/21 05:38:32;;;;;;;28.07;14.47;;;;;;;;;;4956078;28;20421;-73
2023/08/21 05:40:59;;;;;;;30.63;14.90;;;;;;;;;;4956371;28;20518;-73
2023/08/21 05:43:25;;;;;;;27.23;13.50;;;;;;;;;;4956358;28;20440;-73
2023/08/21 05:45:51;;;;;;;23.13;14.90;;;;;;;;;;4970785;28;20464;-73
2023/08/21 05:48:17;;;;;;;22.77;12.77;;;;;;;;;;4956332;28;20756;-73
2023/08/21 05:50:43;;;;;;;27.17;15.10;;;;;;;;;;4956338;28;20408;-75
2023/08/21 05:53:09;;;;;;;25.40;12.60;;;;;;;;;;4956239;28;20900;-74
2023/08/21 05:55:37;;;;;;;22.80;14.00;;;;;;;;;;4956030;28;20745;-74
2023/08/21 05:58:03;;;;;;;25.87;13.10;;;;;;;;;;4956031;28;20409;-73
2023/08/21 06:00:29;;;;;;;21.50;13.77;;;;;;;;;;4956111;28;20463;-73
2023/08/21 06:02:55;;;;;;;30.50;17.03;;;;;;;;;;4956054;28;20933;-73
2023/08/21 06:05:21;;;;;;;20.10;13.40;;;;;;;;;;4956269;28;20413;-77
2023/08/21 06:07:47;;;;;;;25.73;13.23;;;;;;;;;;4956779;28;20472;-72
2023/08/21 06:10:14;;;;;;;23.10;13.53;;;;;;;;;;4956207;28;20409;-74
2023/08/21 06:12:41;;;;;;;22.00;13.10;;;;;;;;;;4955840;28;20413;-73
2023/08/21 06:15:10;;;;;;;24.73;12.30;;;;;;;;;;4956078;28;20419;-75
2023/08/21 06:17:39;;;;;;;26.97;13.63;;;;;;;;;;4958935;28;20417;-73
2023/08/21 06:20:08;;;;;;;21.07;13.80;;;;;;;;;;4960611;28;20453;-74
2023/08/21 06:22:34;;;;;;;27.87;13.57;;;;;;;;;;4956300;28;20420;-73
2023/08/21 06:25:00;;;;;;;25.70;11.33;;;;;;;;;;4956082;28;20963;-75
2023/08/21 06:27:26;;;;;;;31.13;14.20;;;;;;;;;;4955753;28;20459;-76
2023/08/21 06:29:51;;;;;;;22.60;13.10;;;;;;;;;;4954700;28;20413;-75
2023/08/21 06:32:18;;;;;;;22.10;14.07;;;;;;;;;;4961960;28;20479;-73
2023/08/21 06:34:44;;;;;;;20.80;12.60;;;;;;;;;;4963765;28;20447;-74
2023/08/21 06:37:10;;;;;;;30.40;14.60;;;;;;;;;;4959655;28;20490;-75
2023/08/21 06:39:36;;;;;;;31.73;13.70;;;;;;;;;;4969936;28;20535;-74
2023/08/21 06:42:02;;;;;;;18.90;12.80;;;;;;;;;;4969026;28;20482;-75
2023/08/21 06:44:28;;;;;;;23.63;10.93;;;;;;;;;;4963915;28;20880;-75
2023/08/21 06:46:54;;;;;;;19.57;12.10;;;;;;;;;;4962926;28;20565;-75
2023/08/21 06:49:20;;;;;;;16.33;12.10;;;;;;;;;;4963624;28;20405;-76
2023/08/21 06:51:46;;;;;;;16.93;12.83;;;;;;;;;;4973412;28;20475;-74
2023/08/21 06:54:11;;;;;;;16.07;11.50;;;;;;;;;;4974668;28;20407;-76
2023/08/21 06:56:37;;;;;;;17.53;11.30;;;;;;;;;;4968058;28;20471;-75
2023/08/21 06:59:03;;;;;;;20.10;11.93;;;;;;;;;;4961795;28;20429;-76
2023/08/21 07:01:29;;;;;;;27.93;11.17;;;;;;;;;;4962324;28;20998;-75
2023/08/21 07:03:55;;;;;;;15.53;10.50;;;;;;;;;;4955067;28;20533;-75
2023/08/21 07:06:21;;;;;;;22.07;12.93;;;;;;;;;;4956878;28;20432;-74
2023/08/21 07:08:47;;;;;;;22.30;13.67;;;;;;;;;;4956113;28;20416;-74
2023/08/21 07:11:14;;;;;;;19.70;11.80;;;;;;;;;;4944863;28;20437;-73
2023/08/21 07:13:40;;;;;;;16.23;11.80;;;;;;;;;;4960019;29;20476;-72
2023/08/21 07:16:06;;;;;;;19.90;11.80;;;;;;;;;;4957693;29;20448;-76
2023/08/21 07:18:35;;;;;;;15.70;9.40;;;;;;;;;;4956659;29;20425;-75
2023/08/21 07:21:03;;;;;;;15.80;10.60;;;;;;;;;;4950392;29;20568;-74
2023/08/21 07:23:29;;;;;;;18.00;10.50;;;;;;;;;;4941947;29;20476;-75
2023/08/21 07:25:55;;;;;;;14.83;9.20;;;;;;;;;;4945862;28;20795;-74
2023/08/21 07:28:21;;;;;;;20.67;11.10;;;;;;;;;;4941021;29;20516;-75
2023/08/21 07:30:47;;;;;;;18.37;12.93;;;;;;;;;;4945181;29;20425;-72
2023/08/21 07:33:13;;;;;;;17.80;11.13;;;;;;;;;;4957243;28;20483;-77
2023/08/21 07:35:39;;;;;;;20.03;10.20;;;;;;;;;;4959641;29;20432;-76
2023/08/21 07:38:05;;;;;;;16.57;11.73;;;;;;;;;;4937603;29;20414;-75
2023/08/21 07:40:31;;;;;;;18.63;11.57;;;;;;;;;;4943706;29;20468;-75
2023/08/21 07:42:57;;;;;;;18.20;11.50;;;;;;;;;;4958066;28;20420;-75
2023/08/21 07:45:23;;;;;;;20.57;11.30;;;;;;;;;;4955919;29;20430;-75
2023/08/21 07:47:49;;;;;;;19.43;12.10;;;;;;;;;;4936107;29;20426;-74
2023/08/21 07:50:16;;;;;;;22.50;12.30;;;;;;;;;;4935596;29;20465;-75
2023/08/21 07:52:43;;;;;;;19.20;12.30;;;;;;;;;;4939462;29;20506;-74
2023/08/21 07:55:08;;;;;;;19.73;12.70;;;;;;;;;;4954651;28;20432;-74
2023/08/21 07:57:34;;;;;;;17.30;11.63;;;;;;;;;;4937564;29;20449;-73
2023/08/21 08:00:00;;;;;;;16.83;10.53;;;;;;;;;;4954172;29;20712;-74
2023/08/21 08:02:26;;;;;;;18.40;10.93;;;;;;;;;;4950257;29;20781;-75
2023/08/21 08:04:53;;;;;;;22.27;11.90;;;;;;;;;;4954660;29;20423;-74
2023/08/21 08:07:19;;;;;;;17.03;12.07;;;;;;;;;;4940469;28;20464;-74
2023/08/21 08:09:46;;;;;;;22.87;12.33;;;;;;;;;;4951802;29;20922;-73
2023/08/21 08:12:12;;;;;;;17.60;11.30;;;;;;;;;;4953339;29;20428;-73
2023/08/21 08:14:38;;;;;;;14.10;9.63;;;;;;;;;;4954391;28;20515;-73
2023/08/21 08:17:04;;;;;;;19.43;10.50;;;;;;;;;;4953548;29;20496;-74
2023/08/21 08:19:30;;;;;;;20.70;11.53;;;;;;;;;;4954206;29;20413;-74
2023/08/21 08:21:56;;;;;;;13.27;9.27;;;;;;;;;;4954362;29;20903;-75
2023/08/21 08:24:22;;;;;;;14.33;9.97;;;;;;;;;;4953963;28;20784;-75
2023/08/21 08:26:48;;;;;;;12.93;10.10;;;;;;;;;;4945476;29;20446;-74
2023/08/21 08:29:14;;;;;;;19.13;10.00;;;;;;;;;;4948006;29;20499;-73
2023/08/21 08:31:40;;;;;;;13.37;9.23;;;;;;;;;;4953659;29;20432;-74
2023/08/21 08:34:06;;;;;;;13.90;9.60;;;;;;;;;;4954597;29;20782;-74
2023/08/21 08:36:32;;;;;;;18.93;10.30;;;;;;;;;;4953979;29;20528;-73
2023/08/21 08:38:59;;;;;;;20.97;10.90;;;;;;;;;;4953393;28;20842;-73
2023/08/21 08:41:42;;;;;;;18.57;11.33;;;;;;;;;;4951210;28;20488;-75
2023/08/21 08:44:08;;;;;;;14.10;10.40;;;;;;;;;;4952019;29;20797;-75
2023/08/21 08:46:35;;;;;;;12.80;9.40;;;;;;;;;;4947259;29;20828;-75
2023/08/21 08:49:02;;;;;;;19.70;10.57;;;;;;;;;;4956398;29;20992;-75
2023/08/21 08:51:29;;;;;;;13.80;9.63;;;;;;;;;;4957835;28;20451;-75
2023/08/21 08:53:56;;;;;;;12.43;9.00;;;;;;;;;;4956813;28;20424;-73
2023/08/21 08:56:22;;;;;;;14.60;10.23;;;;;;;;;;4953927;28;20510;-73
2023/08/21 08:58:48;;;;;;;19.03;10.50;;;;;;;;;;4946943;29;20437;-72
2023/08/21 09:01:14;;;;;;;19.67;10.17;;;;;;;;;;4951204;29;20476;-76
2023/08/21 09:03:40;;;;;;;19.83;9.57;;;;;;;;;;4957593;29;20996;-76
2023/08/21 09:06:06;;;;;;;13.40;8.43;;;;;;;;;;4954177;29;20451;-76
2023/08/21 09:08:32;;;;;;;17.13;10.03;;;;;;;;;;4939075;29;20426;-76
2023/08/21 09:11:02;;;;;;;15.73;9.63;;;;;;;;;;4946359;29;20421;-76
2023/08/21 09:13:28;;;;;;;11.83;9.03;;;;;;;;;;4939555;29;20426;-75
2023/08/21 09:15:55;;;;;;;13.60;10.23;;;;;;;;;;4953426;28;20855;-75
2023/08/21 09:18:21;;;;;;;16.93;10.90;;;;;;;;;;4956652;28;20420;-77
2023/08/21 09:20:48;;;;;;;17.93;9.80;;;;;;;;;;4955337;29;20471;-75
2023/08/21 09:23:17;;;;;;;17.40;10.53;;;;;;;;;;4953211;28;20420;-74
2023/08/21 09:25:46;;;;;;;12.77;9.03;;;;;;;;;;4957046;28;20428;-74
2023/08/21 09:28:12;;;;;;;11.90;8.80;;;;;;;;;;4944557;28;20441;-75
2023/08/21 09:30:51;;;;;;;13.00;9.93;;;;;;;;;;4942707;29;20849;-75
2023/08/21 09:33:18;;;;;;;12.37;9.77;;;;;;;;;;4939004;29;20432;-77
2023/08/21 09:35:45;;;;;;;12.93;9.17;;;;;;;;;;4940073;29;20950;-76
2023/08/21 09:38:11;;;;;;;13.20;9.20;;;;;;;;;;4940293;29;20469;-76
2023/08/21 09:40:41;;;;;;;13.77;9.50;;;;;;;;;;4951469;29;20460;-75
2023/08/21 09:43:08;;;;;;;15.80;10.00;;;;;;;;;;4951493;29;20433;-76
2023/08/21 09:45:34;;;;;;;13.33;8.90;;;;;;;;;;4976316;28;20441;-77
2023/08/21 09:48:01;;;;;;;14.87;8.70;;;;;;;;;;4954676;29;20459;-78
2023/08/21 09:50:29;;;;;;;13.27;9.37;;;;;;;;;;4968733;29;20423;-78
2023/08/21 09:52:56;;;;;;;13.60;10.23;;;;;;;;;;4957253;28;20436;-77
2023/08/21 09:55:22;;;;;;;11.00;8.93;;;;;;;;;;4947184;29;20421;-77
2023/08/21 09:57:56;;;;;;;10.67;8.07;;;;;;;;;;4942216;29;20436;-75
2023/08/21 10:00:22;;;;;;;10.53;8.80;;;;;;;;;;4946918;29;20472;-75
2023/08/21 10:02:52;;;;;;;12.87;8.40;;;;;;;;;;4953462;29;20425;-77
2023/08/21 10:05:18;;;;;;;12.03;8.23;;;;;;;;;;4953209;29;20512;-77
2023/08/21 10:07:47;;;;;;;11.63;6.97;;;;;;;;;;4964208;29;20424;-77
2023/08/21 10:10:13;;;;;;;10.37;6.80;;;;;;;;;;4964241;28;20416;-77
2023/08/21 10:12:39;;;;;;;13.60;7.60;;;;;;;;;;4961584;29;20425;-77
2023/08/21 10:15:09;;;;;;;10.70;7.07;;;;;;;;;;4957897;28;20433;-76
2023/08/21 10:17:35;;;;;;;15.17;6.63;;;;;;;;;;4947787;29;20469;-76
2023/08/21 10:20:06;;;;;;;12.47;7.53;;;;;;;;;;4946826;29;20453;-75
2023/08/21 10:22:48;;;;;;;13.47;8.50;;;;;;;;;;4948670;29;20425;-75
2023/08/21 10:25:35;;;;;;;16.80;8.90;;;;;;;;;;4938209;29;20417;-75
2023/08/21 10:28:03;;;;;;;17.40;8.60;;;;;;;;;;4946825;29;20444;-76
2023/08/21 10:30:35;;;;;;;14.37;8.17;;;;;;;;;;4954700;28;20443;-75
2023/08/21 10:33:01;;;;;;;12.20;7.60;;;;;;;;;;4948493;28;20455;-76
2023/08/21 10:35:31;;;;;;;12.93;7.40;;;;;;;;;;4957533;28;20417;-76
2023/08/21 10:38:15;;;;;;;12.57;7.37;;;;;;;;;;4955063;29;20448;-74
2023/08/21 10:41:01;;;;;;;14.47;6.90;;;;;;;;;;4954813;29;20480;-75
2023/08/21 10:43:43;;;;;;;13.47;7.20;;;;;;;;;;4944566;29;20455;-76
2023/08/21 10:46:09;;;;;;;9.40;7.00;;;;;;;;;;4954633;28;21009;-76
2023/08/21 10:48:36;;;;;;;13.73;8.17;;;;;;;;;;4954629;29;21019;-74
2023/08/21 10:51:03;;;;;;;12.63;7.60;;;;;;;;;;4954157;29;20852;-76
2023/08/21 10:53:30;;;;;;;14.83;6.50;;;;;;;;;;4944768;29;21258;-74
2023/08/21 10:55:56;;;;;;;12.70;7.00;;;;;;;;;;4943920;28;20489;-77
2023/08/21 10:58:22;;;;;;;11.60;7.77;;;;;;;;;;4949628;29;20420;-75
2023/08/21 11:00:56;;;;;;;11.00;6.87;;;;;;;;;;4942377;28;20484;-76
2023/08/21 11:03:22;;;;;;;14.17;8.00;;;;;;;;;;4948761;28;20443;-75
2023/08/21 11:06:00;;;;;;;9.07;7.57;;;;;;;;;;4955907;28;20926;-75
2023/08/21 11:08:26;;;;;;;11.67;7.67;;;;;;;;;;4953809;29;20276;-74
2023/08/21 11:10:53;;;;;;;13.93;7.50;;;;;;;;;;4954897;28;20456;-75
2023/08/21 11:13:19;;;;;;;10.57;7.00;;;;;;;;;;4943360;28;20441;-76
2023/08/21 11:15:45;;;;;;;12.40;7.53;;;;;;;;;;4936657;29;20801;-73
2023/08/21 11:18:11;;;;;;;10.00;7.40;;;;;;;;;;4991943;23;20498;-74
2023/08/21 11:20:37;;;;;;;11.80;7.50;;;;;;;;;;4935242;29;20478;-74
2023/08/21 11:23:08;;;;;;;8.83;6.30;;;;;;;;;;4935691;29;20849;-74
2023/08/21 11:25:34;;;;;;;9.60;6.80;;;;;;;;;;4935876;29;20409;-75
2023/08/21 11:28:04;;;;;;;10.90;6.80;;;;;;;;;;4935920;29;20471;-74
2023/08/21 11:30:32;;;;;;;14.87;8.17;;;;;;;;;;4934574;29;20429;-74
2023/08/21 11:33:11;;;;;;;9.83;7.17;;;;;;;;;;4936008;29;20425;-73
2023/08/21 11:35:40;;;;;;;8.87;6.50;;;;;;;;;;4936986;29;20449;-73
2023/08/21 11:38:07;;;;;;;18.00;7.30;;;;;;;;;;4937189;29;20943;-74
2023/08/21 11:40:36;;;;;;;9.80;7.30;;;;;;;;;;4930521;29;20500;-73
2023/08/21 11:43:05;;;;;;;14.13;7.37;;;;;;;;;;4929413;29;20902;-74
2023/08/21 11:45:31;;;;;;;13.33;7.43;;;;;;;;;;4936996;29;20426;-73
2023/08/21 11:47:57;;;;;;;16.10;7.93;;;;;;;;;;4939925;28;20471;-75
2023/08/21 11:50:23;;;;;;;9.33;7.57;;;;;;;;;;4941434;29;20957;-76
2023/08/21 11:52:53;;;;;;;10.90;7.70;;;;;;;;;;4931203;29;20517;-76
2023/08/21 11:55:19;;;;;;;12.03;7.47;;;;;;;;;;4915366;29;20863;-76
2023/08/21 11:57:52;;;;;;;9.77;7.30;;;;;;;;;;4918187;29;20442;-75
2023/08/21 12:00:19;;;;;;;14.83;8.20;;;;;;;;;;4933907;29;20472;-76
2023/08/21 12:02:54;;;;;;;15.30;8.20;;;;;;;;;;4929932;29;20848;-74
2023/08/21 12:05:20;;;;;;;13.00;7.43;;;;;;;;;;4919468;29;20760;-73
2023/08/21 12:07:46;;;;;;;11.73;7.57;;;;;;;;;;4935883;29;20433;-73
2023/08/21 12:10:12;;;;;;;13.13;8.20;;;;;;;;;;4937359;29;20776;-74
2023/08/21 12:12:38;;;;;;;12.37;7.57;;;;;;;;;;4935805;29;20417;-74
2023/08/21 12:15:04;;;;;;;17.70;7.30;;;;;;;;;;4935800;29;20497;-73
2023/08/21 12:17:30;;;;;;;12.47;7.07;;;;;;;;;;4936697;29;20512;-74
2023/08/21 12:19:56;;;;;;;11.10;7.20;;;;;;;;;;4936339;29;20469;-74
2023/08/21 12:22:22;;;;;;;13.17;8.83;;;;;;;;;;4935558;29;20413;-74
2023/08/21 12:24:48;;;;;;;14.73;8.53;;;;;;;;;;4935365;29;20492;-74
2023/08/21 12:27:16;;;;;;;10.40;7.63;;;;;;;;;;4934040;29;20442;-74
2023/08/21 12:29:41;;;;;;;16.47;7.60;;;;;;;;;;4936292;29;20434;-74
2023/08/21 12:32:07;;;;;;;18.63;8.30;;;;;;;;;;4934009;29;20433;-74
2023/08/21 12:34:34;;;;;;;12.10;7.37;;;;;;;;;;4935190;29;20414;-74
2023/08/21 12:37:00;;;;;;;11.93;7.57;;;;;;;;;;4933579;29;20762;-74
2023/08/21 12:39:26;;;;;;;18.63;8.00;;;;;;;;;;4933673;29;20430;-74
2023/08/21 12:41:52;;;;;;;18.07;7.70;;;;;;;;;;4935101;29;20573;-74
2023/08/21 12:44:17;;;;;;;15.50;8.10;;;;;;;;;;4933681;29;20542;-74
2023/08/21 12:46:44;;;;;;;15.50;7.97;;;;;;;;;;4934606;29;20442;-74
2023/08/21 12:49:10;;;;;;;16.67;7.93;;;;;;;;;;4935662;29;20888;-74
2023/08/21 12:51:36;;;;;;;13.93;7.90;;;;;;;;;;4933861;29;20432;-74
2023/08/21 12:54:03;;;;;;;12.13;8.17;;;;;;;;;;4935032;29;20421;-73
2023/08/21 12:56:29;;;;;;;14.17;8.27;;;;;;;;;;4939329;29;20422;-73
2023/08/21 12:58:55;;;;;;;13.07;9.27;;;;;;;;;;4937072;29;20541;-73
2023/08/21 13:01:21;;;;;;;10.53;7.80;;;;;;;;;;4937290;29;20476;-73
2023/08/21 13:03:47;;;;;;;10.83;7.50;;;;;;;;;;4937230;29;21056;-73
2023/08/21 13:06:13;;;;;;;15.10;7.93;;;;;;;;;;4936797;29;20824;-73
2023/08/21 13:08:39;;;;;;;13.70;7.87;;;;;;;;;;4935273;29;20426;-73
2023/08/21 13:11:06;;;;;;;13.03;7.73;;;;;;;;;;4935855;29;20437;-73
2023/08/21 13:13:32;;;;;;;11.73;7.67;;;;;;;;;;4936121;29;20496;-73
2023/08/21 13:15:59;;;;;;;10.80;7.70;;;;;;;;;;4935671;29;20837;-73
2023/08/21 13:18:25;;;;;;;18.30;8.10;;;;;;;;;;4934803;29;20946;-74
2023/08/21 13:20:51;;;;;;;11.67;7.77;;;;;;;;;;4934979;29;20461;-73
2023/08/21 13:23:17;;;;;;;11.80;7.77;;;;;;;;;;4933439;29;20424;-73
2023/08/21 13:25:43;;;;;;;13.23;7.57;;;;;;;;;;4935446;29;20416;-73
2023/08/21 13:28:10;;;;;;;10.77;7.40;;;;;;;;;;4938027;29;20813;-73
2023/08/21 13:30:36;;;;;;;10.47;7.63;;;;;;;;;;4938463;29;20418;-73
2023/08/21 13:33:04;;;;;;;12.30;7.90;;;;;;;;;;4936827;29;20440;-74
2023/08/21 13:35:30;;;;;;;11.13;8.20;;;;;;;;;;4937648;29;20805;-74
2023/08/21 13:37:56;;;;;;;20.20;8.43;;;;;;;;;;4937406;29;20850;-74
2023/08/21 13:40:22;;;;;;;13.30;7.77;;;;;;;;;;4936556;29;20469;-73
2023/08/21 13:42:48;;;;;;;9.67;7.23;;;;;;;;;;4938150;29;20896;-73
2023/08/21 13:45:15;;;;;;;14.13;8.30;;;;;;;;;;4937721;29;20413;-74
2023/08/21 13:47:42;;;;;;;11.63;7.57;;;;;;;;;;4937526;29;20488;-74
2023/08/21 13:50:09;;;;;;;12.23;7.60;;;;;;;;;;4937434;29;20416;-74
2023/08/21 13:52:35;;;;;;;11.63;8.13;;;;;;;;;;4936053;29;20491;-72
2023/08/21 13:55:02;;;;;;;19.07;8.60;;;;;;;;;;4924427;29;20414;-72
2023/08/21 13:57:28;;;;;;;12.57;7.37;;;;;;;;;;4917036;29;20509;-72
2023/08/21 13:59:54;;;;;;;14.63;7.40;;;;;;;;;;4918197;29;20912;-72
2023/08/21 14:02:20;;;;;;;12.77;7.67;;;;;;;;;;4917129;29;20419;-73
2023/08/21 14:04:47;;;;;;;9.67;7.97;;;;;;;;;;4918261;29;20414;-72
2023/08/21 14:07:13;;;;;;;14.00;7.77;;;;;;;;;;4918170;29;20441;-72
2023/08/21 14:09:39;;;;;;;11.07;7.37;;;;;;;;;;4918205;29;20781;-73
2023/08/21 14:12:06;;;;;;;17.67;7.57;;;;;;;;;;4918077;29;20924;-73
2023/08/21 14:14:33;;;;;;;13.93;8.77;;;;;;;;;;4918214;29;20422;-73
2023/08/21 14:16:59;;;;;;;16.43;7.47;;;;;;;;;;4918550;29;20511;-73
2023/08/21 14:19:25;;;;;;;11.53;7.60;;;;;;;;;;4918654;29;20900;-74
2023/08/21 14:21:51;;;;;;;12.13;7.73;;;;;;;;;;4918682;29;20283;-73
2023/08/21 14:24:17;;;;;;;16.33;7.67;;;;;;;;;;4918428;29;20415;-73
2023/08/21 14:26:43;;;;;;;12.90;7.70;;;;;;;;;;4918411;29;20490;-72
2023/08/21 14:29:09;;;;;;;11.47;6.77;;;;;;;;;;4926337;29;20473;-75
2023/08/21 14:31:35;;;;;;;12.93;7.10;;;;;;;;;;4928419;29;20436;-76
2023/08/21 14:34:01;;;;;;;19.17;7.80;;;;;;;;;;4926454;29;20516;-74
2023/08/21 14:36:27;;;;;;;11.50;7.50;;;;;;;;;;4930634;29;20438;-74
2023/08/21 14:38:53;;;;;;;11.53;7.60;;;;;;;;;;4925776;29;20486;-74
2023/08/21 14:41:19;;;;;;;15.57;7.87;;;;;;;;;;4929085;29;20466;-76
2023/08/21 14:43:44;;;;;;;16.03;7.87;;;;;;;;;;4936176;29;20424;-75
2023/08/21 14:46:11;;;;;;;12.00;7.60;;;;;;;;;;4931312;29;20414;-75
2023/08/21 14:48:37;;;;;;;11.00;6.60;;;;;;;;;;4920507;29;20442;-76
2023/08/21 14:51:04;;;;;;;11.63;7.33;;;;;;;;;;4932015;29;20419;-77
2023/08/21 14:53:30;;;;;;;13.70;8.67;;;;;;;;;;4923987;29;20444;-77
2023/08/21 14:55:56;;;;;;;12.33;7.60;;;;;;;;;;4925559;29;20776;-75
2023/08/21 14:58:23;;;;;;;8.00;6.80;;;;;;;;;;4925466;29;20473;-76
2023/08/21 15:00:49;;;;;;;19.40;7.70;;;;;;;;;;4927397;29;20469;-75
2023/08/21 15:03:15;;;;;;;12.97;7.70;;;;;;;;;;4932040;29;20468;-76
2023/08/21 15:05:41;;;;;;;11.13;7.40;;;;;;;;;;4947233;29;20786;-75
2023/08/21 15:08:07;;;;;;;9.60;7.83;;;;;;;;;;4924422;29;20458;-76
2023/08/21 15:10:33;;;;;;;12.33;8.20;;;;;;;;;;4932530;29;20615;-76
2023/08/21 15:12:59;;;;;;;11.87;8.10;;;;;;;;;;4932133;29;20473;-75
2023/08/21 15:15:25;;;;;;;13.87;7.40;;;;;;;;;;4936259;29;20802;-75
2023/08/21 15:17:51;;;;;;;11.20;6.63;;;;;;;;;;4936557;29;20457;-75
2023/08/21 15:20:17;;;;;;;9.53;6.70;;;;;;;;;;4926010;29;20627;-75
2023/08/21 15:22:43;;;;;;;11.23;7.30;;;;;;;;;;4928677;29;20512;-74
2023/08/21 15:25:11;;;;;;;9.00;6.83;;;;;;;;;;4928147;29;20574;-73
2023/08/21 15:27:37;;;;;;;11.13;7.37;;;;;;;;;;4925153;29;20772;-75
2023/08/21 15:30:03;;;;;;;11.93;7.10;;;;;;;;;;4932440;29;20954;-74
2023/08/21 15:32:29;;;;;;;10.40;6.70;;;;;;;;;;4935406;29;20436;-75
2023/08/21 15:34:55;;;;;;;12.60;8.10;;;;;;;;;;4935403;29;20776;-76
2023/08/21 15:37:20;;;;;;;9.13;7.73;;;;;;;;;;4935727;29;20436;-75
2023/08/21 15:39:46;;;;;;;10.37;6.87;;;;;;;;;;4934637;29;20433;-75
2023/08/21 15:42:12;;;;;;;10.17;7.60;;;;;;;;;;4935350;29;20408;-75
2023/08/21 15:44:38;;;;;;;15.87;7.67;;;;;;;;;;4935585;29;20413;-75
2023/08/21 15:47:04;;;;;;;10.70;7.10;;;;;;;;;;4932996;29;20445;-73
2023/08/21 15:49:30;;;;;;;13.67;7.13;;;;;;;;;;4933689;29;20425;-73
2023/08/21 15:51:56;;;;;;;13.47;8.57;;;;;;;;;;4923605;29;20470;-73
2023/08/21 15:54:30;;;;;;;11.23;7.63;;;;;;;;;;4926275;29;20832;-73
2023/08/21 15:56:55;;;;;;;14.87;7.87;;;;;;;;;;4935161;29;20425;-73
2023/08/21 15:59:21;;;;;;;10.03;7.70;;;;;;;;;;4928260;29;20982;-72
2023/08/21 16:01:47;;;;;;;10.50;7.57;;;;;;;;;;4928820;29;20564;-73
2023/08/21 16:04:13;;;;;;;10.10;7.17;;;;;;;;;;4929843;29;20851;-74
2023/08/21 16:06:39;;;;;;;9.07;7.43;;;;;;;;;;4929482;29;20441;-72
2023/08/21 16:09:05;;;;;;;11.37;8.10;;;;;;;;;;4931914;29;20461;-72
2023/08/21 16:11:31;;;;;;;12.20;7.90;;;;;;;;;;4919783;29;20513;-72
2023/08/21 16:13:58;;;;;;;14.47;7.03;;;;;;;;;;4919791;29;20438;-73
2023/08/21 16:16:24;;;;;;;12.80;7.63;;;;;;;;;;4925876;29;20789;-73
2023/08/21 16:18:50;;;;;;;18.33;7.20;;;;;;;;;;4925014;29;20472;-72
2023/08/21 16:21:16;;;;;;;13.00;8.13;;;;;;;;;;4922372;29;20454;-72
2023/08/21 16:23:42;;;;;;;11.53;7.93;;;;;;;;;;4922915;29;20410;-72
2023/08/21 16:26:08;;;;;;;11.80;7.60;;;;;;;;;;4928138;29;20785;-72
2023/08/21 16:28:34;;;;;;;16.60;7.97;;;;;;;;;;4925686;29;20438;-72
2023/08/21 16:31:00;;;;;;;17.53;7.40;;;;;;;;;;4924597;29;20502;-72
2023/08/21 16:33:26;;;;;;;10.97;7.57;;;;;;;;;;4926062;29;20430;-72
2023/08/21 16:35:52;;;;;;;9.93;6.93;;;;;;;;;;4926187;29;20454;-72
2023/08/21 16:38:18;;;;;;;12.87;7.43;;;;;;;;;;4925202;29;20497;-73
2023/08/21 16:40:44;;;;;;;13.17;6.97;;;;;;;;;;4925346;29;20470;-72
2023/08/21 16:43:10;;;;;;;11.17;7.00;;;;;;;;;;4927019;29;20418;-74
2023/08/21 16:45:36;;;;;;;16.90;8.80;;;;;;;;;;4928378;29;20413;-72
2023/08/21 16:48:02;;;;;;;15.33;7.60;;;;;;;;;;4926384;29;20849;-74
2023/08/21 16:50:28;;;;;;;12.07;8.10;;;;;;;;;;4926311;29;20433;-72
2023/08/21 16:52:54;;;;;;;15.30;8.07;;;;;;;;;;4923465;29;20415;-73
2023/08/21 16:55:20;;;;;;;11.00;8.17;;;;;;;;;;4927351;29;20424;-73
2023/08/21 16:57:46;;;;;;;12.97;7.70;;;;;;;;;;4928778;29;20838;-72
2023/08/21 17:00:12;;;;;;;14.47;7.30;;;;;;;;;;4928141;29;20468;-73
2023/08/21 17:02:38;;;;;;;10.77;7.67;;;;;;;;;;4931235;29;20899;-72
2023/08/21 17:05:05;;;;;;;11.50;7.70;;;;;;;;;;4929419;29;20413;-72
2023/08/21 17:07:33;;;;;;;13.50;7.73;;;;;;;;;;4928203;29;20528;-72
2023/08/21 17:10:03;;;;;;;11.30;7.43;;;;;;;;;;4927425;29;20414;-72
2023/08/21 17:12:29;;;;;;;12.40;7.63;;;;;;;;;;4927345;29;20513;-72
2023/08/21 17:14:55;;;;;;;10.10;6.77;;;;;;;;;;4926667;29;20855;-72
2023/08/21 17:17:21;;;;;;;12.63;7.90;;;;;;;;;;4927329;29;20533;-72
2023/08/21 17:19:47;;;;;;;9.63;7.23;;;;;;;;;;4976133;23;20496;-77
2023/08/21 17:22:13;;;;;;;15.63;8.10;;;;;;;;;;4967065;28;20438;-77
2023/08/21 17:24:39;;;;;;;11.93;8.20;;;;;;;;;;4962248;28;20902;-76
2023/08/21 17:27:05;;;;;;;14.47;8.03;;;;;;;;;;4956185;28;20431;-75
2023/08/21 17:29:31;;;;;;;14.50;8.87;;;;;;;;;;4964136;28;20805;-76
2023/08/21 17:31:57;;;;;;;10.17;7.00;;;;;;;;;;4949031;29;20417;-76
2023/08/21 17:34:23;;;;;;;12.27;8.90;;;;;;;;;;4946613;29;20457;-76
2023/08/21 17:36:51;;;;;;;12.07;8.37;;;;;;;;;;4938478;29;20441;-76
2023/08/21 17:39:17;;;;;;;12.87;8.47;;;;;;;;;;4937121;29;20995;-75
2023/08/21 17:41:44;;;;;;;11.10;8.43;;;;;;;;;;4940793;29;20608;-75
2023/08/21 17:44:10;;;;;;;12.87;7.10;;;;;;;;;;4939956;29;20437;-75
2023/08/21 17:46:36;;;;;;;16.67;7.60;;;;;;;;;;4949660;29;20424;-75
2023/08/21 17:49:02;;;;;;;10.83;8.50;;;;;;;;;;4944690;29;20827;-76
2023/08/21 17:51:28;;;;;;;14.53;8.00;;;;;;;;;;4943710;29;20484;-75
2023/08/21 17:53:54;;;;;;;11.33;8.23;;;;;;;;;;4943242;29;20418;-75
2023/08/21 17:56:20;;;;;;;18.83;8.80;;;;;;;;;;4944722;29;20429;-76
2023/08/21 17:58:46;;;;;;;14.17;8.37;;;;;;;;;;4943770;28;20444;-75
2023/08/21 18:01:13;;;;;;;12.60;7.97;;;;;;;;;;4953990;29;21000;-74
2023/08/21 18:03:38;;;;;;;12.50;7.77;;;;;;;;;;4940776;28;20922;-68
2023/08/21 18:06:06;;;;;;;17.03;8.20;;;;;;;;;;4937040;29;20437;-69
2023/08/21 18:08:32;;;;;;;15.70;8.47;;;;;;;;;;4937123;29;20931;-68
2023/08/21 18:10:58;;;;;;;14.13;8.40;;;;;;;;;;4937184;29;20968;-70
2023/08/21 18:13:24;;;;;;;15.97;8.07;;;;;;;;;;4938551;29;20432;-68
2023/08/21 18:15:50;;;;;;;12.07;7.80;;;;;;;;;;4955072;29;20421;-68
2023/08/21 18:18:17;;;;;;;20.97;8.50;;;;;;;;;;4956097;29;20453;-68
2023/08/21 18:20:50;;;;;;;13.77;7.97;;;;;;;;;;4957372;29;20595;-67
2023/08/21 18:23:17;;;;;;;15.67;8.00;;;;;;;;;;4955464;28;20899;-67
2023/08/21 18:25:43;;;;;;;11.30;7.20;;;;;;;;;;4937886;29;20492;-69
2023/08/21 18:28:10;;;;;;;15.97;7.00;;;;;;;;;;4937447;29;20565;-69
2023/08/21 18:30:36;;;;;;;11.43;8.17;;;;;;;;;;4937732;29;20414;-69
2023/08/21 18:33:03;;;;;;;12.50;7.87;;;;;;;;;;4938154;29;20572;-68
2023/08/21 18:35:29;;;;;;;13.43;8.13;;;;;;;;;;4955448;29;20432;-69
2023/08/21 18:37:55;;;;;;;13.73;7.80;;;;;;;;;;4955052;29;20773;-69
2023/08/21 18:40:21;;;;;;;16.07;7.60;;;;;;;;;;4955982;29;21026;-69
2023/08/21 18:42:47;;;;;;;16.87;9.27;;;;;;;;;;4955639;29;20420;-69
2023/08/21 18:45:13;;;;;;;16.83;8.40;;;;;;;;;;4939827;29;20804;-68
2023/08/21 18:47:39;;;;;;;15.97;8.57;;;;;;;;;;4936561;29;20508;-69
2023/08/21 18:50:05;;;;;;;15.60;9.50;;;;;;;;;;4936155;29;20457;-69
2023/08/21 18:52:31;;;;;;;15.93;8.37;;;;;;;;;;4936834;29;20445;-69
2023/08/21 18:54:57;;;;;;;14.70;8.40;;;;;;;;;;4936773;29;20954;-68
2023/08/21 18:57:23;;;;;;;15.80;8.37;;;;;;;;;;4952322;29;20508;-68
2023/08/21 18:59:49;;;;;;;14.83;8.27;;;;;;;;;;4955629;29;20994;-70
2023/08/21 19:02:15;;;;;;;14.63;9.10;;;;;;;;;;4956327;29;20460;-69
2023/08/21 19:04:41;;;;;;;20.53;9.93;;;;;;;;;;4952526;29;20551;-70
2023/08/21 19:07:07;;;;;;;9.77;8.23;;;;;;;;;;4955059;29;20417;-70
2023/08/21 19:09:33;;;;;;;18.53;9.47;;;;;;;;;;4956848;28;20456;-69